Latest Coastal Weather Observations for Pirlangimpi (Garden Point)

IDD60701

Issued at 10:55 am CST Wednesday 17 September 2014 (issued every 10 minutes, with the page automatically refreshed every 10 minutes)

About coastal observations | Map of coastal stations | Coastal observations for NT | Marine services | Other Formats
Station Details ID: 014142 Name: PIRLANGIMPI AIRPORT Lat: -11.40 Lon: 130.42 Height: 18.3 m
Data from the previous 72 hours. | See also: Recent months at Pirlangimpi (Garden Point)
Date/Time
CST
Temp

°C
Wind Pressure Rain
since 9am
mm
Weather Cloud Vis
km
Sea
Height
m
Swell
Dir
 
Speed
knots
Gust
knots
hPa Trend Height
m
Period
s
Dir
17/10:30am 31.3 E 8 13 1014.7 - 0.0 - - - - - - -
17/10:00am 30.4 ESE 7 10 1014.8 - 0.0 - - - - - - -
17/09:30am 28.2 S 5 8 1014.6 - 0.0 - - - - - - -
17/09:00am 27.0 S 5 7 1014.5 - 0.0 - - - - - - -
17/08:30am 24.9 S 3 4 1014.4 - 0.0 - - - - - - -
17/08:00am 22.8 SSE 3 4 1014.1 - 0.0 - - - - - - -
17/07:30am 21.1 S 1 1 1013.7 - 0.0 - - - - - - -
17/07:00am 20.1 S 1 2 1013.2 - 0.0 - - - - - - -
17/06:30am 19.7 CALM 0 0 1012.9 - 0.0 - - - - - - -
17/06:00am 20.1 CALM 0 0 1012.7 - 0.0 - - - - - - -
17/05:30am 20.5 SSE 1 1 1012.3 - 0.0 - - - - - - -
17/05:00am 20.4 SSE 2 2 1012.2 - 0.0 - - - - - - -
17/04:30am 20.7 SSE 1 2 1012.3 - 0.0 - - - - - - -
17/04:00am 20.9 CALM 0 0 1012.1 - 0.0 - - - - - - -
17/03:30am 21.4 CALM 0 0 1012.0 - 0.0 - - - - - - -
17/03:00am 21.8 S 1 1 1012.2 - 0.0 - - - - - - -
17/02:30am 22.1 SE 2 3 1012.4 - 0.0 - - - - - - -
17/02:00am 22.0 SE 2 2 1012.5 - 0.0 - - - - - - -
17/01:30am 21.8 ESE 2 3 1012.5 - 0.0 - - - - - - -
17/01:00am 21.4 CALM 0 0 1012.5 - 0.0 - - - - - - -
17/12:30am 21.8 ENE 0 0 1012.8 - 0.0 - - - - - - -
17/12:00am 21.8 ENE 0 0 1012.9 - 0.0 - - - - - - -
 
Date/Time
CST
Temp

°C
Wind Pressure Rain
since 9am
mm
Weather Cloud Vis
km
Sea
Height
m
Swell
Dir
 
Speed
knots
Gust
knots
hPa Trend Height
m
Period
s
Dir
16/11:30pm 21.9 CALM 0 0 1012.9 - 0.0 - - - - - - -
16/11:00pm 22.1 CALM 0 0 1012.7 - 0.0 - - - - - - -
16/10:30pm 22.6 CALM 0 0 1012.5 - 0.0 - - - - - - -
16/10:00pm 22.7 CALM 0 0 1012.3 - 0.0 - - - - - - -
16/09:30pm 23.1 CALM 0 1 1012.1 - 0.0 - - - - - - -
16/09:00pm 23.5 CALM 0 0 1011.9 - 0.0 - - - - - - -
16/08:30pm 24.0 N 1 2 1011.8 - 0.0 - - - - - - -
16/08:00pm 24.7 N 2 3 1011.4 - 0.0 - - - - - - -
16/07:30pm 25.7 N 1 3 1011.3 - 0.0 - - - - - - -
16/07:00pm 26.6 NNE 2 5 1011.0 - 0.0 - - - - - - -
16/06:30pm 27.7 NE 4 8 1010.7 - 0.0 - - - - - - -
16/06:00pm 29.2 ENE 7 12 1010.6 - 0.0 - - - - - - -
16/05:30pm 29.7 NE 7 12 1010.3 - 0.0 - - - - - - -
16/05:00pm 30.5 NE 6 12 1010.1 - 0.0 - - - - - - -
16/04:30pm 31.5 NE 7 11 1010.1 - 0.0 - - - - - - -
16/04:00pm 33.2 NE 7 15 1010.0 - 0.0 - - - - - - -
16/03:30pm 34.4 NE 7 15 1010.0 - 0.0 - - - - - - -
16/03:00pm 34.3 NE 8 17 1010.2 - 0.0 - - - - - - -
16/02:30pm 34.5 ENE 9 17 1010.6 - 0.0 - - - - - - -
16/02:00pm 34.7 NE 8 17 1011.0 - 0.0 - - - - - - -
16/01:30pm 34.1 E 8 13 1011.6 - 0.0 - - - - - - -
16/01:00pm 34.6 NE 9 14 1012.0 - 0.0 - - - - - - -
16/12:30pm 33.5 NE 8 14 1012.4 - 0.0 - - - - - - -
16/12:00pm 32.7 ENE 9 17 1013.0 - 0.0 - - - - - - -
16/11:30am 32.2 NE 8 17 1013.4 - 0.0 - - - - - - -
16/11:00am 30.9 E 11 18 1013.7 - 0.0 - - - - - - -
16/10:30am 31.4 E 7 13 1013.7 - 0.0 - - - - - - -
16/10:00am 30.4 NE 4 8 1013.9 - 0.0 - - - - - - -
16/09:30am 29.0 NE 4 7 1014.0 - 0.0 - - - - - - -
16/09:00am 28.2 E 3 5 1013.8 - 0.0 - - - - - - -
16/08:30am 26.3 SE 1 2 1013.6 - 0.0 - - - - - - -
16/08:00am 24.2 ESE 2 4 1013.4 - 0.0 - - - - - - -
16/07:30am 22.8 ESE 2 3 1013.2 - 0.0 - - - - - - -
16/07:00am 21.6 SE 2 3 1012.9 - 0.0 - - - - - - -
16/06:30am 21.6 SE 1 2 1012.6 - 0.0 - - - - - - -
16/06:00am 22.0 E 2 2 1012.3 - 0.0 - - - - - - -
16/05:30am 22.4 ESE 2 2 1012.1 - 0.0 - - - - - - -
16/05:00am 22.6 ESE 2 2 1011.7 - 0.0 - - - - - - -
16/04:30am 22.3 ESE 2 3 1011.6 - 0.0 - - - - - - -
16/04:00am 21.2 CALM 0 0 1011.5 - 0.0 - - - - - - -
16/03:30am 21.1 CALM 0 0 1011.4 - 0.0 - - - - - - -
16/03:00am 21.2 CALM 0 0 1011.4 - 0.0 - - - - - - -
16/02:30am 21.4 CALM 0 0 1011.5 - 0.0 - - - - - - -
16/02:00am 21.6 CALM 0 0 1011.6 - 0.0 - - - - - - -
16/01:30am 21.7 CALM 0 0 1011.8 - 0.0 - - - - - - -
16/01:00am 22.0 CALM 0 0 1012.0 - 0.0 - - - - - - -
16/12:30am 22.4 CALM 0 0 1012.3 - 0.0 - - - - - - -
16/12:00am 22.5 CALM 0 2 1012.5 - 0.0 - - - - - - -
 
Date/Time
CST
Temp

°C
Wind Pressure Rain
since 9am
mm
Weather Cloud Vis
km
Sea
Height
m
Swell
Dir
 
Speed
knots
Gust
knots
hPa Trend Height
m
Period
s
Dir
15/11:30pm 22.8 N 1 2 1012.5 - 0.0 - - - - - - -
15/11:00pm 23.0 NE 1 2 1012.6 - 0.0 - - - - - - -
15/10:30pm 22.9 CALM 0 0 1012.5 - 0.0 - - - - - - -
15/10:00pm 23.1 CALM 0 0 1012.4 - 0.0 - - - - - - -
15/09:30pm 23.3 CALM 0 0 1012.1 - 0.0 - - - - - - -
15/09:00pm 23.7 CALM 0 0 1012.0 - 0.0 - - - - - - -
15/08:30pm 24.3 N 1 2 1011.5 - 0.0 - - - - - - -
15/08:00pm 24.8 N 2 3 1011.2 - 0.0 - - - - - - -
15/07:30pm 25.4 N 2 3 1010.9 - 0.0 - - - - - - -
15/07:00pm 26.1 NNE 3 5 1010.8 - 0.0 - - - - - - -
15/06:30pm 27.1 N 3 6 1010.6 - 0.0 - - - - - - -
15/06:00pm 28.4 N 2 5 1010.3 - 0.0 - - - - - - -
15/05:30pm 29.1 WSW 3 5 1010.1 - 0.0 - - - - - - -
15/05:00pm 29.2 SSW 5 9 1010.1 - 0.0 - - - - - - -
15/04:30pm 28.7 SSW 5 8 1010.2 - 0.0 - - - - - - -
15/04:00pm 28.8 SSE 7 10 1010.0 - 0.0 - - - - - - -
15/03:30pm 32.0 NE 6 13 1009.7 - 0.0 - - - - - - -
15/03:00pm 32.0 N 4 7 1010.1 - 0.0 - - - - - - -
15/02:30pm 30.7 N 2 5 1010.4 - 0.0 - - - - - - -
15/02:00pm 31.3 NW 3 7 1010.7 - 0.0 - - - - - - -
15/01:30pm 31.3 NW 3 6 1011.2 - 0.0 - - - - - - -
15/01:00pm 30.9 WNW 3 5 1011.7 - 0.0 - - - - - - -
15/12:30pm 33.1 ENE 4 9 1012.5 - 0.0 - - - - - - -
15/12:00pm 30.9 E 4 9 1013.0 - 0.0 - - - - - - -
15/11:30am 30.6 E 5 7 1013.5 - 0.0 - - - - - - -
15/11:00am 29.8 ESE 4 8 1013.9 - 0.0 - - - - - - -
15/10:30am 29.0 SSW 4 7 1014.1 - 0.0 - - - - - - -
15/10:00am 28.2 SSW 4 7 1014.2 - 0.0 - - - - - - -
15/09:30am 27.0 SSE 4 7 1014.3 - 0.0 - - - - - - -
15/09:00am 27.0 SSE 5 6 1014.2 - 0.0 - - - - - - -
15/08:30am 25.2 S 3 5 1013.7 - 0.0 - - - - - - -
15/08:00am 23.1 SSE 1 2 1013.6 - 0.0 - - - - - - -
15/07:30am 21.0 CALM 0 0 1013.2 - 0.0 - - - - - - -
15/07:00am 20.2 CALM 0 0 1012.9 - 0.0 - - - - - - -
15/06:30am 20.3 CALM 0 0 1012.7 - 0.0 - - - - - - -
15/06:00am 20.4 CALM 0 1 1012.2 - 0.0 - - - - - - -
15/05:30am 20.7 CALM 0 0 1011.9 - 0.0 - - - - - - -
15/05:00am 21.2 SE 1 2 1011.8 - 0.0 - - - - - - -
15/04:30am 21.5 ESE 1 2 1011.6 - 0.0 - - - - - - -
15/04:00am 21.8 SE 1 2 1011.4 - 0.0 - - - - - - -
15/03:30am 21.8 SE 2 2 1011.4 - 0.0 - - - - - - -
15/03:00am 21.5 SE 2 3 1011.5 - 0.0 - - - - - - -
15/02:30am 21.3 SSE 2 3 1011.5 - 0.0 - - - - - - -
15/02:00am 21.2 CALM 0 0 1011.7 - 0.0 - - - - - - -
15/01:30am 21.0 CALM 0 0 1011.9 - 0.0 - - - - - - -
15/01:00am 21.1 CALM 0 0 1012.0 - 0.0 - - - - - - -
15/12:30am 21.3 CALM 0 0 1012.2 - 0.0 - - - - - - -
15/12:00am 21.4 CALM 0 0 1012.4 - 0.0 - - - - - - -
 
Date/Time
CST
Temp

°C
Wind Pressure Rain
since 9am
mm
Weather Cloud Vis
km
Sea
Height
m
Swell
Dir
 
Speed
knots
Gust
knots
hPa Trend Height
m
Period
s
Dir
14/11:30pm 21.5 CALM 0 0 1012.4 - 0.0 - - - - - - -
14/11:00pm 21.5 CALM 0 0 1012.2 - 0.0 - - - - - - -
14/10:30pm 21.9 CALM 0 0 1012.0 - 0.0 - - - - - - -
14/10:00pm 22.3 CALM 0 0 1011.9 - 0.0 - - - - - - -
14/09:30pm 22.7 CALM 0 0 1011.7 - 0.0 - - - - - - -
14/09:00pm 23.0 CALM 0 1 1011.5 - 0.0 - - - - - - -
14/08:30pm 23.7 NW 1 2 1011.3 - 0.0 - - - - - - -
14/08:00pm 24.8 NNW 2 2 1010.9 - 0.0 - - - - - - -
14/07:30pm 25.5 N 2 4 1010.7 - 0.0 - - - - - - -
14/07:00pm 26.2 NNE 3 6 1010.5 - 0.0 - - - - - - -
14/06:30pm 27.1 NNE 4 8 1010.3 - 0.0 - - - - - - -
14/06:00pm 28.2 NNE 5 10 1010.2 - 0.0 - - - - - - -
14/05:30pm 29.5 NNE 6 11 1010.0 - 0.0 - - - - - - -
14/05:00pm 30.7 NNE 5 11 1009.9 - 0.0 - - - - - - -
14/04:30pm 32.2 NNE 6 13 1009.6 - 0.0 - - - - - - -
14/04:00pm 33.2 NE 6 15 1009.6 - 0.0 - - - - - - -
14/03:30pm 32.7 NNE 5 13 1009.7 - 0.0 - - - - - - -
14/03:00pm 33.9 NE 8 16 1009.9 - 0.0 - - - - - - -
14/02:30pm 35.3 ENE 9 17 1010.1 - 0.0 - - - - - - -
14/02:00pm 34.4 E 11 14 1010.4 - 0.0 - - - - - - -
14/01:30pm 36.0 ESE 11 19 1010.5 - 0.0 - - - - - - -
14/01:00pm 35.3 SSE 10 16 1011.2 - 0.0 - - - - - - -
14/12:30pm 34.8 SSE 7 10 1011.7 - 0.0 - - - - - - -
14/12:00pm 32.6 SSW 6 10 1012.3 - 0.0 - - - - - - -
14/11:30am 33.1 ESE 7 13 1012.9 - 0.0 - - - - - - -
14/11:00am 30.9 SW 7 9 1013.4 - 0.0 - - - - - - -

Other Formats:

Comma delimited format used in spreadsheet applications
http://www.bom.gov.au/fwo/IDD60701/IDD60701.94119.axf

JavaScript Object Notation format (JSON) in row-major order
http://www.bom.gov.au/fwo/IDD60701/IDD60701.94119.json